Portada
METAR-TAF:

METAR-TAF

Aeroports :

Kulusuk, Grenlàndia

latitud: 65-35N, longitud: 037-09W, altitud: 35 m

Observació

L'informe es va fer fa 56 minuts, a les 18:50 UTC
Vent 36 kt del Sud-Est amb ràfegues de 46 kt
Temperatura -11°C
Humitat 85%
Pressió 988 hPa
Visibilitat: 0150 m
neu

METAR: BGKK 211850Z AUTO 13036G46KT 0150NDV +SN BKN012/// M11/M13 Q0988

Hora: 16:46 (19:46 UTC)

Pronòstic

L'informe es va fer fa 45 minuts, a les 19:01 UTC
Pronòstic vàlid del 21 a les 18 UTC al 21 a les 20 UTC
Vent 30 kt del Est/Sud-Est
Visibilitat: 8000 m
Cel ennuvolat a una alçada de 2500 ft
neu
Temporalment
l' 21 a les 18 UTC al 21 a les 20 UTC
Vent 25 kt del Est/Sud-Est amb ràfegues de 45 kt
Visibilitat: 0500 m
Cel ennuvolat a una alçada de 500 ft
neu, torb alta de neu

TAF: BGKK 211901Z 2118/2120 12030KT 8000 -SN DRSNFEW012 BKN025 TEMPO 2118/2120 12025G45KT 0500 SN BLSN BKN005

Observacions i pronòstics meteorològics de més de 4000 aeroports (METAR i TAF).

Les estacions disponibles són els punts grocs i vermells al mapa.

Posi el ratolí al punt desitjat per veure el nom de l'estació.

Feu clic per veure les observacions i els pronòstics meteorològics.

Per canviar el mapa: feu clic els botons verds amb una creu de color negre per apropar; al botó verd amb un guió per allunyar la imatge; o en les fletxes verdes per a mapes adjacents.


METAR-TAF: